Time,TemperatureF,DewpointF,PressureIn,WindDirection,WindDirectionDegrees,WindSpeedMPH,WindSpeedGustMPH,Humidity,HourlyPrecipIn,Conditions,Clouds,dailyrainin,SoftwareType,DateUTC
2013-06-01 00:06:00,78.7,74.0,30.00,ESE,111,6.0,-999.0,84,-99.99,,,0.00,weatherlink.com 1.10,2013-06-01 04:06:00,
2013-06-01 00:21:00,78.7,74.0,30.00,SSE,151,3.0,-999.0,84,-99.99,,,0.00,weatherlink.com 1.10,2013-06-01 04:21:00,
2013-06-01 00:36:00,78.4,73.0,30.00,East,86,6.0,-999.0,84,-99.99,,,0.00,weatherlink.com 1.10,2013-06-01 04:36:00,
2013-06-01 00:51:00,78.1,73.0,30.00,East,92,4.0,-999.0,85,-99.99,,,0.00,weatherlink.com 1.10,2013-06-01 04:51:00,
2013-06-01 01:06:00,78.0,74.0,29.99,East,83,9.0,-999.0,86,-99.99,,,0.00,weatherlink.com 1.10,2013-06-01 05:06:00,
2013-06-01 01:21:00,77.9,74.0,29.99,ESE,113,7.0,-999.0,87,-99.99,,,0.00,weatherlink.com 1.10,2013-06-01 05:21:00,
2013-06-01 01:36:00,77.7,74.0,29.98,East,94,3.0,-999.0,87,-99.99,,,0.00,weatherlink.com 1.10,2013-06-01 05:36:00,
2013-06-01 01:51:00,77.5,73.0,29.97,ESE,122,5.0,-999.0,86,-99.99,,,0.00,weatherlink.com 1.10,2013-06-01 05:51:00,
2013-06-01 02:06:00,77.4,73.0,29.97,East,90,1.0,-999.0,87,-99.99,,,0.00,weatherlink.com 1.10,2013-06-01 06:06:00,
2013-06-01 02:21:00,77.3,73.0,29.96,East,90,5.0,-999.0,86,-99.99,,,0.00,weatherlink.com 1.10,2013-06-01 06:21:00,
2013-06-01 02:36:00,77.2,73.0,29.96,East,86,7.0,-999.0,87,-99.99,,,0.00,weatherlink.com 1.10,2013-06-01 06:36:00,
2013-06-01 02:51:00,77.2,74.0,29.95,East,90,9.0,-999.0,88,-99.99,,,0.00,weatherlink.com 1.10,2013-06-01 06:51:00,
2013-06-01 03:06:00,77.0,73.0,29.94,East,87,10.0,-999.0,88,-99.99,,,0.00,weatherlink.com 1.10,2013-06-01 07:06:00,
2013-06-01 03:21:00,76.9,73.0,29.94,East,91,10.0,-999.0,88,-99.99,,,0.00,weatherlink.com 1.10,2013-06-01 07:21:00,
2013-06-01 03:36:00,77.0,73.0,29.94,ESE,119,9.0,-999.0,88,-99.99,,,0.00,weatherlink.com 1.10,2013-06-01 07:36:00,
2013-06-01 03:51:00,77.1,73.0,29.94,East,88,8.0,-999.0,88,-99.99,,,0.00,weatherlink.com 1.10,2013-06-01 07:51:00,
2013-06-01 04:06:00,77.1,73.0,29.94,ENE,78,6.0,-999.0,88,-99.99,,,0.00,weatherlink.com 1.10,2013-06-01 08:06:00,
2013-06-01 04:21:00,77.0,74.0,29.94,East,79,7.0,-999.0,89,-99.99,,,0.00,weatherlink.com 1.10,2013-06-01 08:21:00,
2013-06-01 04:36:00,76.7,73.0,29.93,East,83,7.0,-999.0,89,-99.99,,,0.00,weatherlink.com 1.10,2013-06-01 08:36:00,
2013-06-01 04:51:00,76.7,73.0,29.93,East,99,7.0,-999.0,89,-99.99,,,0.00,weatherlink.com 1.10,2013-06-01 08:51:00,
2013-06-01 05:06:00,76.6,74.0,29.94,East,87,5.0,-999.0,90,-99.99,,,0.00,weatherlink.com 1.10,2013-06-01 09:06:00,
2013-06-01 05:21:00,76.5,73.0,29.94,East,92,7.0,-999.0,89,-99.99,,,0.00,weatherlink.com 1.10,2013-06-01 09:21:00,
2013-06-01 05:36:00,76.5,74.0,29.94,East,83,7.0,-999.0,90,-99.99,,,0.00,weatherlink.com 1.10,2013-06-01 09:36:00,
2013-06-01 05:51:00,76.6,74.0,29.94,East,88,6.0,-999.0,90,-99.99,,,0.00,weatherlink.com 1.10,2013-06-01 09:51:00,
2013-06-01 06:06:00,76.5,74.0,29.94,East,91,6.0,-999.0,90,-99.99,,,0.00,weatherlink.com 1.10,2013-06-01 10:06:00,
2013-06-01 06:21:00,76.5,74.0,29.95,East,84,6.0,-999.0,90,-99.99,,,0.00,weatherlink.com 1.10,2013-06-01 10:21:00,
2013-06-01 06:36:00,76.5,74.0,29.95,ENE,75,6.0,-999.0,91,-99.99,,,0.00,weatherlink.com 1.10,2013-06-01 10:36:00,
2013-06-01 06:51:00,76.1,73.0,29.96,ENE,75,6.0,-999.0,91,-99.99,,,0.00,weatherlink.com 1.10,2013-06-01 10:51:00,
2013-06-01 07:06:00,76.2,74.0,29.96,East,82,7.0,-999.0,92,-99.99,,,0.00,weatherlink.com 1.10,2013-06-01 11:06:00,
2013-06-01 07:21:00,76.3,74.0,29.97,East,90,6.0,-999.0,92,-99.99,,,0.00,weatherlink.com 1.10,2013-06-01 11:21:00,
2013-06-01 07:36:00,76.6,74.0,29.97,East,90,6.0,-999.0,92,-99.99,,,0.00,weatherlink.com 1.10,2013-06-01 11:36:00,
2013-06-01 07:51:00,76.9,74.0,29.97,East,87,5.0,-999.0,91,-99.99,,,0.00,weatherlink.com 1.10,2013-06-01 11:51:00,
2013-06-01 08:06:00,76.9,74.0,29.97,East,90,8.0,-999.0,91,-99.99,,,0.00,weatherlink.com 1.10,2013-06-01 12:06:00,
2013-06-01 08:21:00,76.6,74.0,29.98,East,88,8.0,-999.0,92,-99.99,,,0.00,weatherlink.com 1.10,2013-06-01 12:21:00,
2013-06-01 08:36:00,76.6,75.0,29.98,East,90,7.0,-999.0,93,-99.99,,,0.00,weatherlink.com 1.10,2013-06-01 12:36:00,
2013-06-01 08:51:00,76.9,75.0,29.98,East,98,6.0,-999.0,92,-99.99,,,0.00,weatherlink.com 1.10,2013-06-01 12:51:00,
2013-06-01 09:06:00,77.2,75.0,29.98,East,87,2.0,-999.0,92,-99.99,,,0.00,weatherlink.com 1.10,2013-06-01 13:06:00,
2013-06-01 09:21:00,78.0,75.0,29.98,ESE,110,9.0,-999.0,90,-99.99,,,0.00,weatherlink.com 1.10,2013-06-01 13:21:00,
2013-06-01 09:36:00,78.7,75.0,29.98,East,83,5.0,-999.0,88,-99.99,,,0.00,weatherlink.com 1.10,2013-06-01 13:36:00,
2013-06-01 09:51:00,78.7,75.0,29.98,SE,130,4.0,-999.0,88,-99.99,,,0.00,weatherlink.com 1.10,2013-06-01 13:51:00,
2013-06-01 10:06:00,79.6,75.0,29.98,ESE,105,5.0,-999.0,86,-99.99,,,0.00,weatherlink.com 1.10,2013-06-01 14:06:00,
2013-06-01 10:21:00,80.4,76.0,29.98,SE,132,4.0,-999.0,85,-99.99,,,0.00,weatherlink.com 1.10,2013-06-01 14:21:00,
2013-06-01 10:36:00,80.7,75.0,29.98,SE,138,4.0,-999.0,83,-99.99,,,0.00,weatherlink.com 1.10,2013-06-01 14:36:00,
2013-06-01 10:51:00,81.2,75.0,29.98,ESE,104,3.0,-999.0,82,-99.99,,,0.00,weatherlink.com 1.10,2013-06-01 14:51:00,
2013-06-01 11:06:00,81.5,75.0,29.98,ESE,103,5.0,-999.0,81,-99.99,,,0.00,weatherlink.com 1.10,2013-06-01 15:06:00,
2013-06-01 11:21:00,82.0,75.0,29.97,SE,126,4.0,-999.0,79,-99.99,,,0.00,weatherlink.com 1.10,2013-06-01 15:21:00,
2013-06-01 11:36:00,81.8,75.0,29.97,ESE,103,3.0,-999.0,80,-99.99,,,0.00,weatherlink.com 1.10,2013-06-01 15:36:00,
2013-06-01 11:51:00,82.1,75.0,29.97,East,90,2.0,-999.0,80,-99.99,,,0.00,weatherlink.com 1.10,2013-06-01 15:51:00,
2013-06-01 12:06:00,82.6,76.0,29.97,SE,126,3.0,-999.0,79,-99.99,,,0.00,weatherlink.com 1.10,2013-06-01 16:06:00,
2013-06-01 12:21:00,83.0,75.0,29.97,SE,130,3.0,-999.0,77,-99.99,,,0.00,weatherlink.com 1.10,2013-06-01 16:21:00,
2013-06-01 12:36:00,83.2,75.0,29.97,SE,134,4.0,-999.0,76,-99.99,,,0.00,weatherlink.com 1.10,2013-06-01 16:36:00,
2013-06-01 12:51:00,83.5,76.0,29.97,East,99,2.0,-999.0,77,-99.99,,,0.00,weatherlink.com 1.10,2013-06-01 16:51:00,
2013-06-01 13:06:00,83.3,76.0,29.97,East,80,4.0,-999.0,78,-99.99,,,0.00,weatherlink.com 1.10,2013-06-01 17:06:00,
2013-06-01 13:21:00,84.0,76.0,29.97,East,91,4.0,-999.0,76,-99.99,,,0.00,weatherlink.com 1.10,2013-06-01 17:21:00,
2013-06-01 13:36:00,83.5,76.0,29.96,East,89,2.0,-999.0,77,-99.99,,,0.00,weatherlink.com 1.10,2013-06-01 17:36:00,
2013-06-01 13:51:00,84.7,76.0,29.96,ESE,110,3.0,-999.0,74,-99.99,,,0.00,weatherlink.com 1.10,2013-06-01 17:51:00,
2013-06-01 14:06:00,85.0,76.0,29.95,ESE,122,2.0,-999.0,74,-99.99,,,0.00,weatherlink.com 1.10,2013-06-01 18:06:00,
2013-06-01 14:21:00,85.8,78.0,29.95,SSW,210,1.0,-999.0,77,-99.99,,,0.00,weatherlink.com 1.10,2013-06-01 18:21:00,
2013-06-01 14:36:00,84.3,78.0,29.94,SW,233,2.0,-999.0,80,-99.99,,,0.00,weatherlink.com 1.10,2013-06-01 18:36:00,
2013-06-01 14:51:00,83.3,77.0,29.94,SW,227,1.0,-999.0,82,-99.99,,,0.00,weatherlink.com 1.10,2013-06-01 18:51:00,
2013-06-01 15:06:00,82.6,77.0,29.94,SW,227,3.0,-999.0,83,-99.99,,,0.00,weatherlink.com 1.10,2013-06-01 19:06:00,
2013-06-01 15:21:00,82.5,77.0,29.93,SW,232,1.0,-999.0,84,-99.99,,,0.00,weatherlink.com 1.10,2013-06-01 19:21:00,
2013-06-01 15:36:00,83.0,77.0,29.93,WSW,252,3.0,-999.0,83,-99.99,,,0.00,weatherlink.com 1.10,2013-06-01 19:36:00,
2013-06-01 15:51:00,83.6,78.0,29.93,WSW,252,2.0,-999.0,82,-99.99,,,0.00,weatherlink.com 1.10,2013-06-01 19:51:00,
2013-06-01 16:06:00,83.5,78.0,29.92,SW,220,1.0,-999.0,82,-99.99,,,0.00,weatherlink.com 1.10,2013-06-01 20:06:00,
2013-06-01 16:21:00,83.9,78.0,29.91,SW,236,1.0,-999.0,81,-99.99,,,0.00,weatherlink.com 1.10,2013-06-01 20:21:00,
2013-06-01 16:36:00,83.9,78.0,29.92,WSW,254,2.0,-999.0,81,-99.99,,,0.00,weatherlink.com 1.10,2013-06-01 20:36:00,
2013-06-01 16:51:00,84.1,78.0,29.91,West,280,2.0,-999.0,81,-99.99,,,0.00,weatherlink.com 1.10,2013-06-01 20:51:00,
2013-06-01 17:06:00,83.8,77.0,29.91,SW,234,3.0,-999.0,81,-99.99,,,0.00,weatherlink.com 1.10,2013-06-01 21:06:00,
2013-06-01 17:21:00,83.4,77.0,29.91,SW,223,2.0,-999.0,82,-99.99,,,0.00,weatherlink.com 1.10,2013-06-01 21:21:00,
2013-06-01 17:36:00,83.3,78.0,29.91,SSW,196,0.0,-999.0,83,-99.99,,,0.00,weatherlink.com 1.10,2013-06-01 21:36:00,
2013-06-01 17:51:00,83.5,78.0,29.91,West,264,1.0,-999.0,82,-99.99,,,0.00,weatherlink.com 1.10,2013-06-01 21:51:00,
2013-06-01 18:06:00,82.6,77.0,29.92,WSW,254,0.0,-999.0,83,-99.99,,,0.00,weatherlink.com 1.10,2013-06-01 22:06:00,
2013-06-01 18:21:00,81.9,77.0,29.92,NW,306,5.0,-999.0,84,-99.99,,,0.00,weatherlink.com 1.10,2013-06-01 22:21:00,
2013-06-01 18:36:00,81.8,76.0,29.92,NW,313,2.0,-999.0,83,-99.99,,,0.00,weatherlink.com 1.10,2013-06-01 22:36:00,
2013-06-01 18:51:00,80.8,76.0,29.93,NNW,327,2.0,-999.0,86,-99.99,,,0.00,weatherlink.com 1.10,2013-06-01 22:51:00,
2013-06-01 19:06:00,79.0,74.0,29.93,NE,37,0.0,-999.0,85,-99.99,,,0.00,weatherlink.com 1.10,2013-06-01 23:06:00,
2013-06-01 19:21:00,78.3,75.0,29.92,NE,38,5.0,-999.0,88,-99.99,,,0.00,weatherlink.com 1.10,2013-06-01 23:21:00,
2013-06-01 19:36:00,78.2,75.0,29.93,NE,38,6.0,-999.0,89,-99.99,,,0.00,weatherlink.com 1.10,2013-06-01 23:36:00,
2013-06-01 19:51:00,77.7,75.0,29.93,East,88,3.0,-999.0,90,-99.99,,,0.00,weatherlink.com 1.10,2013-06-01 23:51:00,
2013-06-01 20:06:00,77.9,74.0,29.94,ESE,113,0.0,-999.0,87,-99.99,,,0.00,weatherlink.com 1.10,2013-06-02 00:06:00,
2013-06-01 20:21:00,78.0,74.0,29.94,ESE,112,0.0,-999.0,88,-99.99,,,0.00,weatherlink.com 1.10,2013-06-02 00:21:00,
2013-06-01 20:36:00,78.2,75.0,29.95,ESE,113,2.0,-999.0,89,-99.99,,,0.00,weatherlink.com 1.10,2013-06-02 00:36:00,
2013-06-01 20:51:00,77.5,75.0,29.95,SE,144,3.0,-999.0,91,-99.99,,,0.02,weatherlink.com 1.10,2013-06-02 00:51:00,
2013-06-01 21:06:00,76.7,75.0,29.95,SSE,149,2.0,-999.0,93,-99.99,,,0.04,weatherlink.com 1.10,2013-06-02 01:06:00,
2013-06-01 21:21:00,76.2,74.0,29.95,East,88,4.0,-999.0,94,-99.99,,,0.05,weatherlink.com 1.10,2013-06-02 01:21:00,
2013-06-01 21:36:00,75.7,74.0,29.96,ENE,71,9.0,-999.0,94,-99.99,,,0.07,weatherlink.com 1.10,2013-06-02 01:36:00,
2013-06-01 21:51:00,75.6,74.0,29.98,ENE,70,6.0,-999.0,95,-99.99,,,0.09,weatherlink.com 1.10,2013-06-02 01:51:00,
2013-06-01 22:06:00,75.3,74.0,29.98,ENE,69,5.0,-999.0,96,-99.99,,,0.11,weatherlink.com 1.10,2013-06-02 02:06:00,
2013-06-01 22:21:00,75.2,74.0,29.95,ENE,60,1.0,-999.0,96,-99.99,,,0.13,weatherlink.com 1.10,2013-06-02 02:21:00,
2013-06-01 22:36:00,75.3,74.0,29.94,South,191,3.0,-999.0,96,-99.99,,,0.15,weatherlink.com 1.10,2013-06-02 02:36:00,
2013-06-01 22:51:00,75.7,75.0,29.94,SE,136,4.0,-999.0,97,-99.99,,,0.17,weatherlink.com 1.10,2013-06-02 02:51:00,
2013-06-01 23:06:00,75.8,75.0,29.94,SE,132,0.0,-999.0,97,-99.99,,,0.19,weatherlink.com 1.10,2013-06-02 03:06:00,
2013-06-01 23:21:00,75.9,75.0,29.94,SE,132,0.0,-999.0,97,-99.99,,,0.21,weatherlink.com 1.10,2013-06-02 03:21:00,
2013-06-01 23:36:00,75.7,75.0,29.93,SE,132,2.0,-999.0,97,-99.99,,,0.23,weatherlink.com 1.10,2013-06-02 03:36:00,
2013-06-01 23:51:00,75.7,75.0,29.93,SE,132,2.0,-999.0,97,-99.99,,,0.25,weatherlink.com 1.10,2013-06-02 03:51:00,